<?xml version="1.0" encoding="UTF-8" standalone="no" ?>
<gpx xmlns="http://www.topografix.com/GPX/1/1" xmlns:xsi="http://www.w3.org/2001/XMLSchema-instance" xsi:schemaLocation="http://www.topografix.com/GPX/1/1 http://www.topografix.com/GPX/1/1/gpx.xsd" version="1.1" creator="VisuGPX - https://www.visugpx.com">
  <metadata>
    <name>Circuit dans la dorêt de Fontainebleau</name>
    <desc><![CDATA[Trace du circuit balisé en bleu dans la forêt domaniale de la commanderie.
De l\\\'ordre de 3 heures, quelques dénivelés
balisage tres visible]]></desc>
  </metadata>
  <wpt lat="48.29758" lon="2.59774">
    <ele>124</ele>
    <name><![CDATA[WPT001]]></name>
    <desc><![CDATA[]]></desc>
    <type><![CDATA[Point de départ]]></type>
  </wpt>
  <wpt lat="48.29436" lon="2.5799">
    <ele>80.9</ele>
    <name><![CDATA[WPT002]]></name>
    <desc><![CDATA[]]></desc>
    <type><![CDATA[Photo]]></type>
  </wpt>
  <wpt lat="48.29698" lon="2.58097">
    <ele>83.2</ele>
    <name><![CDATA[WPT003]]></name>
    <desc><![CDATA[]]></desc>
    <type><![CDATA[Photo]]></type>
  </wpt>
  <wpt lat="48.30325" lon="2.59767">
    <ele>126</ele>
    <name><![CDATA[WPT004]]></name>
    <desc><![CDATA[]]></desc>
    <type><![CDATA[Photo]]></type>
  </wpt>
  <wpt lat="48.30292" lon="2.60221">
    <ele>86.3</ele>
    <name><![CDATA[]]></name>
    <desc><![CDATA[]]></desc>
    <type><![CDATA[Point de navigation]]></type>
  </wpt>
  <wpt lat="48.29764" lon="2.59844">
    <ele>121</ele>
    <name><![CDATA[WPT006]]></name>
    <desc><![CDATA[<br /><h3>Nom: Segment 1</h3><br /><p>Temps de départ: 07/14/2012 09:25</p><p>Temps d'arrivée: 07/14/2012 12:34</p><p>Distance: 10,2 km (03:08)</p><p>Temps déplacement: 02:26</p><p>Vitesse moyenne: 3,2 km/h</p><p>Vitesse moyenne: 4,2 km/h</p><p>Vitess Max.: 9,9 km/h</p><p>Altitude minimale: 103 m</p><p>Altitude maximale: 165 m</p><p>Vitesse d'élévation: 150 m/h</p><p>Vitesse de descente: -145 m/h</p><p>Gain Altitude: 188 m</p><p>Perte Altitude: -199 m</p><p>Temps d'élévation: 01:15</p><p>Temps de descente: 01:22</p>]]></desc>
    <type><![CDATA[Point d'arrivée]]></type>
  </wpt>
  <trk>
    <name><![CDATA[2012-07-14 09:25]]></name>
    <desc><![CDATA[<h1>OruxMaps</h1><br /><hr align="center" width="480" style="height: 2px; width: 517px"/><h2>Nom: 2012-07-14 09:25</h2><br /><p>Temps de départ: 07/14/2012 09:25</p><p>Temps d'arrivée: 07/14/2012 12:34</p><p>Distance: 10,2 km (03:08)</p><p>Temps déplacement: 02:26</p><p>Vitesse moyenne: 3,2 km/h</p><p>Vitesse moyenne: 4,2 km/h</p><p>Vitess Max.: 9,9 km/h</p><p>Altitude minimale: 103 m</p><p>Altitude maximale: 165 m</p><p>Vitesse d'élévation: 150 m/h</p><p>Vitesse de descente: -145 m/h</p><p>Gain Altitude: 188 m</p><p>Perte Altitude: -199 m</p><p>Temps d'élévation: 01:15</p><p>Temps de descente: 01:22</p><hr align="center" width="480" style="height: 2px; width: 517px"/>]]></desc>
    <trkseg>
      <trkpt lat="48.29758" lon="2.59774">
        <ele>124.5</ele>
        <time>2012-07-14T07:25:48Z</time>
      </trkpt>
      <trkpt lat="48.29774" lon="2.5976">
        <ele>116.96023</ele>
        <time>2012-07-14T07:27:09Z</time>
      </trkpt>
      <trkpt lat="48.29777" lon="2.59733">
        <ele>114.49836</ele>
        <time>2012-07-14T07:27:23Z</time>
      </trkpt>
      <trkpt lat="48.29785" lon="2.59708">
        <ele>109.03292</ele>
        <time>2012-07-14T07:27:54Z</time>
      </trkpt>
      <trkpt lat="48.29793" lon="2.59683">
        <ele>105.271416</ele>
        <time>2012-07-14T07:28:18Z</time>
      </trkpt>
      <trkpt lat="48.29809" lon="2.5967">
        <ele>107.557144</ele>
        <time>2012-07-14T07:28:51Z</time>
      </trkpt>
      <trkpt lat="48.29828" lon="2.59672">
        <ele>110.17081</ele>
        <time>2012-07-14T07:29:05Z</time>
      </trkpt>
      <trkpt lat="48.29843" lon="2.59657">
        <ele>111.306915</ele>
        <time>2012-07-14T07:29:18Z</time>
      </trkpt>
      <trkpt lat="48.29857" lon="2.59639">
        <ele>108.88771</ele>
        <time>2012-07-14T07:29:29Z</time>
      </trkpt>
      <trkpt lat="48.29873" lon="2.59625">
        <ele>109.04968</ele>
        <time>2012-07-14T07:29:49Z</time>
      </trkpt>
      <trkpt lat="48.29891" lon="2.59617">
        <ele>111.285324</ele>
        <time>2012-07-14T07:30:06Z</time>
      </trkpt>
      <trkpt lat="48.29907" lon="2.59603">
        <ele>110.46356</ele>
        <time>2012-07-14T07:30:21Z</time>
      </trkpt>
      <trkpt lat="48.29923" lon="2.59587">
        <ele>109.11849</ele>
        <time>2012-07-14T07:30:33Z</time>
      </trkpt>
      <trkpt lat="48.29938" lon="2.59569">
        <ele>111.33672</ele>
        <time>2012-07-14T07:30:43Z</time>
      </trkpt>
      <trkpt lat="48.29947" lon="2.59545">
        <ele>109.97432</ele>
        <time>2012-07-14T07:30:59Z</time>
      </trkpt>
      <trkpt lat="48.29951" lon="2.59517">
        <ele>107.74714</ele>
        <time>2012-07-14T07:31:14Z</time>
      </trkpt>
      <trkpt lat="48.29954" lon="2.59489">
        <ele>107.27161</ele>
        <time>2012-07-14T07:31:30Z</time>
      </trkpt>
      <trkpt lat="48.29953" lon="2.5946">
        <ele>111.35265</ele>
        <time>2012-07-14T07:32:14Z</time>
      </trkpt>
      <trkpt lat="48.29967" lon="2.59444">
        <ele>116.05206</ele>
        <time>2012-07-14T07:33:08Z</time>
      </trkpt>
      <trkpt lat="48.29985" lon="2.5944">
        <ele>125.01239</ele>
        <time>2012-07-14T07:33:42Z</time>
      </trkpt>
      <trkpt lat="48.29997" lon="2.59419">
        <ele>125.83992</ele>
        <time>2012-07-14T07:34:43Z</time>
      </trkpt>
      <trkpt lat="48.30006" lon="2.59394">
        <ele>123.36067</ele>
        <time>2012-07-14T07:35:27Z</time>
      </trkpt>
      <trkpt lat="48.30011" lon="2.59367">
        <ele>127.57328</ele>
        <time>2012-07-14T07:35:40Z</time>
      </trkpt>
      <trkpt lat="48.30004" lon="2.59341">
        <ele>130.25</ele>
        <time>2012-07-14T07:35:57Z</time>
      </trkpt>
      <trkpt lat="48.29986" lon="2.59334">
        <ele>129.79797</ele>
        <time>2012-07-14T07:36:18Z</time>
      </trkpt>
      <trkpt lat="48.2997" lon="2.5932">
        <ele>130.58617</ele>
        <time>2012-07-14T07:36:39Z</time>
      </trkpt>
      <trkpt lat="48.29953" lon="2.5931">
        <ele>131.1876</ele>
        <time>2012-07-14T07:36:57Z</time>
      </trkpt>
      <trkpt lat="48.29941" lon="2.59289">
        <ele>122.26367</ele>
        <time>2012-07-14T07:37:25Z</time>
      </trkpt>
      <trkpt lat="48.29929" lon="2.59267">
        <ele>121.90819</ele>
        <time>2012-07-14T07:37:44Z</time>
      </trkpt>
      <trkpt lat="48.29914" lon="2.5925">
        <ele>122.12535</ele>
        <time>2012-07-14T07:38:00Z</time>
      </trkpt>
      <trkpt lat="48.29899" lon="2.59234">
        <ele>121.765816</ele>
        <time>2012-07-14T07:38:22Z</time>
      </trkpt>
      <trkpt lat="48.29884" lon="2.59219">
        <ele>116.74188</ele>
        <time>2012-07-14T07:38:42Z</time>
      </trkpt>
      <trkpt lat="48.29882" lon="2.59191">
        <ele>110.31608</ele>
        <time>2012-07-14T07:39:09Z</time>
      </trkpt>
      <trkpt lat="48.29874" lon="2.59167">
        <ele>112.57287</ele>
        <time>2012-07-14T07:39:30Z</time>
      </trkpt>
      <trkpt lat="48.29862" lon="2.59147">
        <ele>114.79903</ele>
        <time>2012-07-14T07:39:49Z</time>
      </trkpt>
      <trkpt lat="48.29846" lon="2.59132">
        <ele>113.73643</ele>
        <time>2012-07-14T07:40:11Z</time>
      </trkpt>
      <trkpt lat="48.29828" lon="2.59138">
        <ele>111.9044</ele>
        <time>2012-07-14T07:40:23Z</time>
      </trkpt>
      <trkpt lat="48.29812" lon="2.59151">
        <ele>110.90016</ele>
        <time>2012-07-14T07:40:35Z</time>
      </trkpt>
      <trkpt lat="48.29795" lon="2.59163">
        <ele>110.90287</ele>
        <time>2012-07-14T07:40:50Z</time>
      </trkpt>
      <trkpt lat="48.29776" lon="2.59168">
        <ele>111.9691</ele>
        <time>2012-07-14T07:41:04Z</time>
      </trkpt>
      <trkpt lat="48.29758" lon="2.59173">
        <ele>112.54071</ele>
        <time>2012-07-14T07:41:18Z</time>
      </trkpt>
      <trkpt lat="48.29741" lon="2.59184">
        <ele>115.26164</ele>
        <time>2012-07-14T07:41:38Z</time>
      </trkpt>
      <trkpt lat="48.29723" lon="2.59194">
        <ele>115.21194</ele>
        <time>2012-07-14T07:41:58Z</time>
      </trkpt>
      <trkpt lat="48.29705" lon="2.59202">
        <ele>118.46807</ele>
        <time>2012-07-14T07:42:18Z</time>
      </trkpt>
      <trkpt lat="48.29687" lon="2.5921">
        <ele>120.00426</ele>
        <time>2012-07-14T07:42:34Z</time>
      </trkpt>
      <trkpt lat="48.29673" lon="2.59229">
        <ele>115.97615</ele>
        <time>2012-07-14T07:42:49Z</time>
      </trkpt>
      <trkpt lat="48.29658" lon="2.59242">
        <ele>114.65815</ele>
        <time>2012-07-14T07:43:16Z</time>
      </trkpt>
      <trkpt lat="48.29641" lon="2.59256">
        <ele>115.95184</ele>
        <time>2012-07-14T07:43:33Z</time>
      </trkpt>
      <trkpt lat="48.29628" lon="2.59276">
        <ele>116.86073</ele>
        <time>2012-07-14T07:43:51Z</time>
      </trkpt>
      <trkpt lat="48.2961" lon="2.59279">
        <ele>115.09389</ele>
        <time>2012-07-14T07:44:19Z</time>
      </trkpt>
      <trkpt lat="48.29592" lon="2.59278">
        <ele>120.07113</ele>
        <time>2012-07-14T07:44:42Z</time>
      </trkpt>
      <trkpt lat="48.29574" lon="2.59285">
        <ele>117.308426</ele>
        <time>2012-07-14T07:45:02Z</time>
      </trkpt>
      <trkpt lat="48.29556" lon="2.59287">
        <ele>124.47046</ele>
        <time>2012-07-14T07:45:27Z</time>
      </trkpt>
      <trkpt lat="48.29538" lon="2.59294">
        <ele>129.59802</ele>
        <time>2012-07-14T07:45:52Z</time>
      </trkpt>
      <trkpt lat="48.2954" lon="2.59267">
        <ele>130.39122</ele>
        <time>2012-07-14T07:46:46Z</time>
      </trkpt>
      <trkpt lat="48.29545" lon="2.59239">
        <ele>132.63568</ele>
        <time>2012-07-14T07:47:00Z</time>
      </trkpt>
      <trkpt lat="48.29548" lon="2.59211">
        <ele>133.57764</ele>
        <time>2012-07-14T07:47:15Z</time>
      </trkpt>
      <trkpt lat="48.29546" lon="2.59183">
        <ele>130.78293</ele>
        <time>2012-07-14T07:47:40Z</time>
      </trkpt>
      <trkpt lat="48.2954" lon="2.59158">
        <ele>127.0166</ele>
        <time>2012-07-14T07:48:24Z</time>
      </trkpt>
      <trkpt lat="48.29524" lon="2.59144">
        <ele>126.24121</ele>
        <time>2012-07-14T07:48:57Z</time>
      </trkpt>
      <trkpt lat="48.29513" lon="2.59122">
        <ele>126.740204</ele>
        <time>2012-07-14T07:49:12Z</time>
      </trkpt>
      <trkpt lat="48.295" lon="2.59103">
        <ele>127.51989</ele>
        <time>2012-07-14T07:49:27Z</time>
      </trkpt>
      <trkpt lat="48.29481" lon="2.59101">
        <ele>127.607155</ele>
        <time>2012-07-14T07:49:49Z</time>
      </trkpt>
      <trkpt lat="48.29465" lon="2.59116">
        <ele>126.88397</ele>
        <time>2012-07-14T07:50:08Z</time>
      </trkpt>
      <trkpt lat="48.29455" lon="2.59139">
        <ele>128.84564</ele>
        <time>2012-07-14T07:50:24Z</time>
      </trkpt>
      <trkpt lat="48.2945" lon="2.59165">
        <ele>126.97929</ele>
        <time>2012-07-14T07:50:38Z</time>
      </trkpt>
      <trkpt lat="48.29459" lon="2.59189">
        <ele>122.19453</ele>
        <time>2012-07-14T07:50:50Z</time>
      </trkpt>
      <trkpt lat="48.29453" lon="2.59216">
        <ele>121.17124</ele>
        <time>2012-07-14T07:51:09Z</time>
      </trkpt>
      <trkpt lat="48.29439" lon="2.59235">
        <ele>125.963264</ele>
        <time>2012-07-14T07:51:23Z</time>
      </trkpt>
      <trkpt lat="48.29431" lon="2.5926">
        <ele>126.74107</ele>
        <time>2012-07-14T07:51:40Z</time>
      </trkpt>
      <trkpt lat="48.29427" lon="2.59286">
        <ele>128.27357</ele>
        <time>2012-07-14T07:52:02Z</time>
      </trkpt>
      <trkpt lat="48.29412" lon="2.59271">
        <ele>120.70746</ele>
        <time>2012-07-14T07:52:42Z</time>
      </trkpt>
      <trkpt lat="48.29417" lon="2.59244">
        <ele>122.690216</ele>
        <time>2012-07-14T07:53:08Z</time>
      </trkpt>
      <trkpt lat="48.29424" lon="2.59218">
        <ele>127.78295</ele>
        <time>2012-07-14T07:53:24Z</time>
      </trkpt>
      <trkpt lat="48.29412" lon="2.59198">
        <ele>125.44814</ele>
        <time>2012-07-14T07:54:12Z</time>
      </trkpt>
      <trkpt lat="48.29396" lon="2.59184">
        <ele>125.77558</ele>
        <time>2012-07-14T07:54:32Z</time>
      </trkpt>
      <trkpt lat="48.29378" lon="2.5919">
        <ele>121.25892</ele>
        <time>2012-07-14T07:54:55Z</time>
      </trkpt>
      <trkpt lat="48.29364" lon="2.59207">
        <ele>115.2523</ele>
        <time>2012-07-14T07:55:15Z</time>
      </trkpt>
      <trkpt lat="48.29355" lon="2.59231">
        <ele>111.79521</ele>
        <time>2012-07-14T07:55:32Z</time>
      </trkpt>
      <trkpt lat="48.29359" lon="2.59258">
        <ele>106.87622</ele>
        <time>2012-07-14T07:55:53Z</time>
      </trkpt>
      <trkpt lat="48.29359" lon="2.59285">
        <ele>105.50021</ele>
        <time>2012-07-14T07:56:43Z</time>
      </trkpt>
      <trkpt lat="48.29352" lon="2.59311">
        <ele>107.420525</ele>
        <time>2012-07-14T07:56:52Z</time>
      </trkpt>
      <trkpt lat="48.29346" lon="2.59339">
        <ele>117.0283</ele>
        <time>2012-07-14T07:57:03Z</time>
      </trkpt>
      <trkpt lat="48.29349" lon="2.59367">
        <ele>114.97321</ele>
        <time>2012-07-14T07:57:19Z</time>
      </trkpt>
      <trkpt lat="48.29346" lon="2.59394">
        <ele>117.31122</ele>
        <time>2012-07-14T07:57:53Z</time>
      </trkpt>
      <trkpt lat="48.2936" lon="2.59413">
        <ele>118.64518</ele>
        <time>2012-07-14T07:58:45Z</time>
      </trkpt>
      <trkpt lat="48.29361" lon="2.59441">
        <ele>113.57953</ele>
        <time>2012-07-14T07:59:01Z</time>
      </trkpt>
      <trkpt lat="48.29371" lon="2.59464">
        <ele>114.236855</ele>
        <time>2012-07-14T07:59:20Z</time>
      </trkpt>
      <trkpt lat="48.29358" lon="2.59483">
        <ele>119.82408</ele>
        <time>2012-07-14T08:00:22Z</time>
      </trkpt>
      <trkpt lat="48.29341" lon="2.5949">
        <ele>120.415</ele>
        <time>2012-07-14T08:00:40Z</time>
      </trkpt>
      <trkpt lat="48.29323" lon="2.59497">
        <ele>119.767494</ele>
        <time>2012-07-14T08:01:02Z</time>
      </trkpt>
      <trkpt lat="48.29307" lon="2.59509">
        <ele>120.27638</ele>
        <time>2012-07-14T08:01:12Z</time>
      </trkpt>
      <trkpt lat="48.29289" lon="2.59505">
        <ele>116.15326</ele>
        <time>2012-07-14T08:01:32Z</time>
      </trkpt>
      <trkpt lat="48.29271" lon="2.59505">
        <ele>107.87204</ele>
        <time>2012-07-14T08:02:00Z</time>
      </trkpt>
      <trkpt lat="48.29252" lon="2.59501">
        <ele>114.42784</ele>
        <time>2012-07-14T08:02:30Z</time>
      </trkpt>
      <trkpt lat="48.29234" lon="2.59496">
        <ele>113.632286</ele>
        <time>2012-07-14T08:02:54Z</time>
      </trkpt>
      <trkpt lat="48.29217" lon="2.59505">
        <ele>114.22466</ele>
        <time>2012-07-14T08:03:07Z</time>
      </trkpt>
      <trkpt lat="48.29199" lon="2.59509">
        <ele>118.714584</ele>
        <time>2012-07-14T08:03:43Z</time>
      </trkpt>
      <trkpt lat="48.29181" lon="2.59504">
        <ele>119.87182</ele>
        <time>2012-07-14T08:03:58Z</time>
      </trkpt>
      <trkpt lat="48.29164" lon="2.59492">
        <ele>121.80195</ele>
        <time>2012-07-14T08:04:19Z</time>
      </trkpt>
      <trkpt lat="48.2915" lon="2.59474">
        <ele>134.67157</ele>
        <time>2012-07-14T08:05:42Z</time>
      </trkpt>
      <trkpt lat="48.29143" lon="2.59449">
        <ele>135.80193</ele>
        <time>2012-07-14T08:06:30Z</time>
      </trkpt>
      <trkpt lat="48.29126" lon="2.5944">
        <ele>142.12352</ele>
        <time>2012-07-14T08:06:46Z</time>
      </trkpt>
      <trkpt lat="48.29128" lon="2.59413">
        <ele>151.95158</ele>
        <time>2012-07-14T08:07:35Z</time>
      </trkpt>
      <trkpt lat="48.29147" lon="2.59409">
        <ele>151.12495</ele>
        <time>2012-07-14T08:08:04Z</time>
      </trkpt>
      <trkpt lat="48.29164" lon="2.59401">
        <ele>145.1905</ele>
        <time>2012-07-14T08:08:18Z</time>
      </trkpt>
      <trkpt lat="48.29175" lon="2.59379">
        <ele>144.19345</ele>
        <time>2012-07-14T08:08:42Z</time>
      </trkpt>
      <trkpt lat="48.2919" lon="2.59395">
        <ele>137.37398</ele>
        <time>2012-07-14T08:09:20Z</time>
      </trkpt>
      <trkpt lat="48.29207" lon="2.59408">
        <ele>131.73679</ele>
        <time>2012-07-14T08:10:09Z</time>
      </trkpt>
      <trkpt lat="48.29226" lon="2.59414">
        <ele>130.84503</ele>
        <time>2012-07-14T08:10:25Z</time>
      </trkpt>
      <trkpt lat="48.2924" lon="2.59433">
        <ele>133.17627</ele>
        <time>2012-07-14T08:11:47Z</time>
      </trkpt>
      <trkpt lat="48.29255" lon="2.59417">
        <ele>127.541176</ele>
        <time>2012-07-14T08:12:58Z</time>
      </trkpt>
      <trkpt lat="48.2924" lon="2.59401">
        <ele>120.83491</ele>
        <time>2012-07-14T08:14:56Z</time>
      </trkpt>
      <trkpt lat="48.29222" lon="2.59397">
        <ele>125.17286</ele>
        <time>2012-07-14T08:15:33Z</time>
      </trkpt>
      <trkpt lat="48.29205" lon="2.59386">
        <ele>124.8203</ele>
        <time>2012-07-14T08:15:45Z</time>
      </trkpt>
      <trkpt lat="48.29189" lon="2.59374">
        <ele>125.30308</ele>
        <time>2012-07-14T08:16:10Z</time>
      </trkpt>
      <trkpt lat="48.2917" lon="2.59374">
        <ele>129.00145</ele>
        <time>2012-07-14T08:16:43Z</time>
      </trkpt>
      <trkpt lat="48.29154" lon="2.59388">
        <ele>138.83478</ele>
        <time>2012-07-14T08:17:13Z</time>
      </trkpt>
      <trkpt lat="48.29136" lon="2.59394">
        <ele>144.71999</ele>
        <time>2012-07-14T08:17:42Z</time>
      </trkpt>
      <trkpt lat="48.29117" lon="2.59395">
        <ele>148.33223</ele>
        <time>2012-07-14T08:17:56Z</time>
      </trkpt>
      <trkpt lat="48.291" lon="2.59406">
        <ele>145.5479</ele>
        <time>2012-07-14T08:18:29Z</time>
      </trkpt>
      <trkpt lat="48.29086" lon="2.59388">
        <ele>148.75394</ele>
        <time>2012-07-14T08:18:55Z</time>
      </trkpt>
      <trkpt lat="48.29083" lon="2.59361">
        <ele>148.61044</ele>
        <time>2012-07-14T08:19:15Z</time>
      </trkpt>
      <trkpt lat="48.29076" lon="2.59335">
        <ele>152.21074</ele>
        <time>2012-07-14T08:19:33Z</time>
      </trkpt>
      <trkpt lat="48.29069" lon="2.5931">
        <ele>155.79149</ele>
        <time>2012-07-14T08:19:52Z</time>
      </trkpt>
      <trkpt lat="48.29053" lon="2.59298">
        <ele>155.38963</ele>
        <time>2012-07-14T08:20:04Z</time>
      </trkpt>
      <trkpt lat="48.29035" lon="2.59289">
        <ele>154.43646</ele>
        <time>2012-07-14T08:20:21Z</time>
      </trkpt>
      <trkpt lat="48.2902" lon="2.59273">
        <ele>157.97878</ele>
        <time>2012-07-14T08:20:37Z</time>
      </trkpt>
      <trkpt lat="48.29006" lon="2.59254">
        <ele>158.9398</ele>
        <time>2012-07-14T08:20:55Z</time>
      </trkpt>
      <trkpt lat="48.29008" lon="2.59225">
        <ele>157.61134</ele>
        <time>2012-07-14T08:21:09Z</time>
      </trkpt>
      <trkpt lat="48.29006" lon="2.59198">
        <ele>161.12161</ele>
        <time>2012-07-14T08:21:22Z</time>
      </trkpt>
      <trkpt lat="48.29001" lon="2.5917">
        <ele>162.92763</ele>
        <time>2012-07-14T08:21:35Z</time>
      </trkpt>
      <trkpt lat="48.28992" lon="2.59146">
        <ele>162.20177</ele>
        <time>2012-07-14T08:21:52Z</time>
      </trkpt>
      <trkpt lat="48.28979" lon="2.59128">
        <ele>160.20432</ele>
        <time>2012-07-14T08:22:05Z</time>
      </trkpt>
      <trkpt lat="48.28975" lon="2.59101">
        <ele>165.35152</ele>
        <time>2012-07-14T08:23:00Z</time>
      </trkpt>
      <trkpt lat="48.28978" lon="2.59074">
        <ele>164.6472</ele>
        <time>2012-07-14T08:23:16Z</time>
      </trkpt>
      <trkpt lat="48.28973" lon="2.59047">
        <ele>160.39099</ele>
        <time>2012-07-14T08:23:31Z</time>
      </trkpt>
      <trkpt lat="48.28976" lon="2.59019">
        <ele>159.09393</ele>
        <time>2012-07-14T08:23:51Z</time>
      </trkpt>
      <trkpt lat="48.28993" lon="2.59009">
        <ele>161.8366</ele>
        <time>2012-07-14T08:24:06Z</time>
      </trkpt>
      <trkpt lat="48.29008" lon="2.58992">
        <ele>162.68224</ele>
        <time>2012-07-14T08:24:25Z</time>
      </trkpt>
      <trkpt lat="48.29013" lon="2.58965">
        <ele>162.49112</ele>
        <time>2012-07-14T08:24:42Z</time>
      </trkpt>
      <trkpt lat="48.2903" lon="2.58974">
        <ele>160.97755</ele>
        <time>2012-07-14T08:25:07Z</time>
      </trkpt>
      <trkpt lat="48.29048" lon="2.58984">
        <ele>161.3077</ele>
        <time>2012-07-14T08:25:41Z</time>
      </trkpt>
      <trkpt lat="48.29066" lon="2.58991">
        <ele>158.37213</ele>
        <time>2012-07-14T08:25:52Z</time>
      </trkpt>
      <trkpt lat="48.29085" lon="2.58987">
        <ele>155.27602</ele>
        <time>2012-07-14T08:26:21Z</time>
      </trkpt>
      <trkpt lat="48.29102" lon="2.58973">
        <ele>150.03088</ele>
        <time>2012-07-14T08:26:32Z</time>
      </trkpt>
      <trkpt lat="48.29121" lon="2.58966">
        <ele>147.24512</ele>
        <time>2012-07-14T08:26:42Z</time>
      </trkpt>
      <trkpt lat="48.29139" lon="2.5897">
        <ele>143.78073</ele>
        <time>2012-07-14T08:27:11Z</time>
      </trkpt>
      <trkpt lat="48.29157" lon="2.58963">
        <ele>141.54037</ele>
        <time>2012-07-14T08:27:26Z</time>
      </trkpt>
      <trkpt lat="48.29175" lon="2.58956">
        <ele>140.58617</ele>
        <time>2012-07-14T08:27:55Z</time>
      </trkpt>
      <trkpt lat="48.29188" lon="2.58935">
        <ele>139.45404</ele>
        <time>2012-07-14T08:28:06Z</time>
      </trkpt>
      <trkpt lat="48.29184" lon="2.58908">
        <ele>136.49406</ele>
        <time>2012-07-14T08:28:24Z</time>
      </trkpt>
      <trkpt lat="48.29177" lon="2.58882">
        <ele>134.89162</ele>
        <time>2012-07-14T08:28:46Z</time>
      </trkpt>
      <trkpt lat="48.29171" lon="2.58856">
        <ele>135.08646</ele>
        <time>2012-07-14T08:29:02Z</time>
      </trkpt>
      <trkpt lat="48.29155" lon="2.58839">
        <ele>141.70966</ele>
        <time>2012-07-14T08:29:33Z</time>
      </trkpt>
      <trkpt lat="48.29139" lon="2.58826">
        <ele>140.73744</ele>
        <time>2012-07-14T08:29:45Z</time>
      </trkpt>
      <trkpt lat="48.29142" lon="2.58798">
        <ele>141.53038</ele>
        <time>2012-07-14T08:30:02Z</time>
      </trkpt>
      <trkpt lat="48.29125" lon="2.58783">
        <ele>144.33504</ele>
        <time>2012-07-14T08:30:57Z</time>
      </trkpt>
      <trkpt lat="48.2913" lon="2.58755">
        <ele>143.62828</ele>
        <time>2012-07-14T08:32:27Z</time>
      </trkpt>
      <trkpt lat="48.29127" lon="2.58728">
        <ele>148.58476</ele>
        <time>2012-07-14T08:32:45Z</time>
      </trkpt>
      <trkpt lat="48.29112" lon="2.58713">
        <ele>149.60687</ele>
        <time>2012-07-14T08:32:59Z</time>
      </trkpt>
      <trkpt lat="48.29117" lon="2.58687">
        <ele>154.6456</ele>
        <time>2012-07-14T08:33:23Z</time>
      </trkpt>
      <trkpt lat="48.2912" lon="2.58659">
        <ele>159.54181</ele>
        <time>2012-07-14T08:33:39Z</time>
      </trkpt>
      <trkpt lat="48.29115" lon="2.58633">
        <ele>157.64835</ele>
        <time>2012-07-14T08:33:53Z</time>
      </trkpt>
      <trkpt lat="48.29126" lon="2.58611">
        <ele>148.5777</ele>
        <time>2012-07-14T08:34:39Z</time>
      </trkpt>
      <trkpt lat="48.29132" lon="2.58585">
        <ele>145.25401</ele>
        <time>2012-07-14T08:35:01Z</time>
      </trkpt>
      <trkpt lat="48.29132" lon="2.58557">
        <ele>145.57556</ele>
        <time>2012-07-14T08:35:24Z</time>
      </trkpt>
      <trkpt lat="48.29149" lon="2.58549">
        <ele>140.55894</ele>
        <time>2012-07-14T08:36:03Z</time>
      </trkpt>
      <trkpt lat="48.29158" lon="2.58525">
        <ele>137.85442</ele>
        <time>2012-07-14T08:36:29Z</time>
      </trkpt>
      <trkpt lat="48.29169" lon="2.58503">
        <ele>134.61664</ele>
        <time>2012-07-14T08:36:40Z</time>
      </trkpt>
      <trkpt lat="48.29163" lon="2.58477">
        <ele>133.56616</ele>
        <time>2012-07-14T08:36:58Z</time>
      </trkpt>
      <trkpt lat="48.29147" lon="2.58464">
        <ele>134.20331</ele>
        <time>2012-07-14T08:37:11Z</time>
      </trkpt>
      <trkpt lat="48.29132" lon="2.58447">
        <ele>135.5347</ele>
        <time>2012-07-14T08:37:26Z</time>
      </trkpt>
      <trkpt lat="48.29117" lon="2.58433">
        <ele>134.76823</ele>
        <time>2012-07-14T08:37:38Z</time>
      </trkpt>
      <trkpt lat="48.29105" lon="2.5841">
        <ele>135.01173</ele>
        <time>2012-07-14T08:37:54Z</time>
      </trkpt>
      <trkpt lat="48.29091" lon="2.58394">
        <ele>134.38583</ele>
        <time>2012-07-14T08:38:07Z</time>
      </trkpt>
      <trkpt lat="48.29106" lon="2.58378">
        <ele>136.86823</ele>
        <time>2012-07-14T08:39:00Z</time>
      </trkpt>
      <trkpt lat="48.29124" lon="2.58369">
        <ele>141.20023</ele>
        <time>2012-07-14T08:39:12Z</time>
      </trkpt>
      <trkpt lat="48.29141" lon="2.58357">
        <ele>139.14827</ele>
        <time>2012-07-14T08:39:21Z</time>
      </trkpt>
      <trkpt lat="48.29152" lon="2.58333">
        <ele>137.09329</ele>
        <time>2012-07-14T08:39:40Z</time>
      </trkpt>
      <trkpt lat="48.29162" lon="2.58309">
        <ele>135.8698</ele>
        <time>2012-07-14T08:39:51Z</time>
      </trkpt>
      <trkpt lat="48.29165" lon="2.58282">
        <ele>132.82097</ele>
        <time>2012-07-14T08:40:01Z</time>
      </trkpt>
      <trkpt lat="48.29163" lon="2.58254">
        <ele>130.52412</ele>
        <time>2012-07-14T08:40:15Z</time>
      </trkpt>
      <trkpt lat="48.29163" lon="2.58227">
        <ele>131.933</ele>
        <time>2012-07-14T08:40:33Z</time>
      </trkpt>
      <trkpt lat="48.29152" lon="2.58201">
        <ele>134.0088</ele>
        <time>2012-07-14T08:40:46Z</time>
      </trkpt>
      <trkpt lat="48.29146" lon="2.58176">
        <ele>131.28256</ele>
        <time>2012-07-14T08:40:58Z</time>
      </trkpt>
      <trkpt lat="48.2916" lon="2.5816">
        <ele>133.37718</ele>
        <time>2012-07-14T08:41:16Z</time>
      </trkpt>
      <trkpt lat="48.29179" lon="2.58155">
        <ele>136.87454</ele>
        <time>2012-07-14T08:41:28Z</time>
      </trkpt>
      <trkpt lat="48.29196" lon="2.58166">
        <ele>140.12018</ele>
        <time>2012-07-14T08:41:46Z</time>
      </trkpt>
      <trkpt lat="48.29214" lon="2.58165">
        <ele>140.45003</ele>
        <time>2012-07-14T08:42:03Z</time>
      </trkpt>
      <trkpt lat="48.29229" lon="2.58152">
        <ele>141.55846</ele>
        <time>2012-07-14T08:42:47Z</time>
      </trkpt>
      <trkpt lat="48.29243" lon="2.58134">
        <ele>138.94704</ele>
        <time>2012-07-14T08:43:18Z</time>
      </trkpt>
      <trkpt lat="48.2926" lon="2.58144">
        <ele>140.7458</ele>
        <time>2012-07-14T08:43:38Z</time>
      </trkpt>
      <trkpt lat="48.2928" lon="2.58142">
        <ele>137.50723</ele>
        <time>2012-07-14T08:43:50Z</time>
      </trkpt>
      <trkpt lat="48.29299" lon="2.58135">
        <ele>135.46086</ele>
        <time>2012-07-14T08:44:03Z</time>
      </trkpt>
      <trkpt lat="48.29317" lon="2.58128">
        <ele>135.01161</ele>
        <time>2012-07-14T08:44:16Z</time>
      </trkpt>
      <trkpt lat="48.29335" lon="2.58125">
        <ele>136.8765</ele>
        <time>2012-07-14T08:44:43Z</time>
      </trkpt>
      <trkpt lat="48.29339" lon="2.58098">
        <ele>139.76968</ele>
        <time>2012-07-14T08:45:00Z</time>
      </trkpt>
      <trkpt lat="48.29333" lon="2.58072">
        <ele>142.25072</ele>
        <time>2012-07-14T08:45:15Z</time>
      </trkpt>
      <trkpt lat="48.29343" lon="2.58048">
        <ele>144.77698</ele>
        <time>2012-07-14T08:45:47Z</time>
      </trkpt>
      <trkpt lat="48.29345" lon="2.58021">
        <ele>141.30684</ele>
        <time>2012-07-14T08:46:02Z</time>
      </trkpt>
      <trkpt lat="48.29341" lon="2.57993">
        <ele>141.09534</ele>
        <time>2012-07-14T08:46:21Z</time>
      </trkpt>
      <trkpt lat="48.29355" lon="2.57975">
        <ele>139.38075</ele>
        <time>2012-07-14T08:47:08Z</time>
      </trkpt>
      <trkpt lat="48.29374" lon="2.57969">
        <ele>140.28734</ele>
        <time>2012-07-14T08:47:21Z</time>
      </trkpt>
      <trkpt lat="48.29392" lon="2.57959">
        <ele>142.03706</ele>
        <time>2012-07-14T08:47:28Z</time>
      </trkpt>
      <trkpt lat="48.29409" lon="2.57968">
        <ele>136.3875</ele>
        <time>2012-07-14T08:50:10Z</time>
      </trkpt>
      <trkpt lat="48.29418" lon="2.57944">
        <ele>135.61693</ele>
        <time>2012-07-14T08:50:21Z</time>
      </trkpt>
      <trkpt lat="48.29419" lon="2.57916">
        <ele>131.92874</ele>
        <time>2012-07-14T08:50:41Z</time>
      </trkpt>
      <trkpt lat="48.29437" lon="2.57909">
        <ele>136.41821</ele>
        <time>2012-07-14T08:50:55Z</time>
      </trkpt>
      <trkpt lat="48.29449" lon="2.5793">
        <ele>127.17743</ele>
        <time>2012-07-14T08:51:16Z</time>
      </trkpt>
      <trkpt lat="48.29459" lon="2.57954">
        <ele>125.91536</ele>
        <time>2012-07-14T08:51:33Z</time>
      </trkpt>
      <trkpt lat="48.29477" lon="2.57967">
        <ele>127.34647</ele>
        <time>2012-07-14T08:51:47Z</time>
      </trkpt>
      <trkpt lat="48.29495" lon="2.57962">
        <ele>128.17682</ele>
        <time>2012-07-14T08:52:03Z</time>
      </trkpt>
      <trkpt lat="48.29508" lon="2.57941">
        <ele>130.5512</ele>
        <time>2012-07-14T08:52:13Z</time>
      </trkpt>
      <trkpt lat="48.29505" lon="2.57914">
        <ele>130.28499</ele>
        <time>2012-07-14T08:52:36Z</time>
      </trkpt>
      <trkpt lat="48.29497" lon="2.5789">
        <ele>129.36768</ele>
        <time>2012-07-14T08:52:47Z</time>
      </trkpt>
      <trkpt lat="48.29492" lon="2.57863">
        <ele>131.35866</ele>
        <time>2012-07-14T08:53:09Z</time>
      </trkpt>
      <trkpt lat="48.29503" lon="2.57839">
        <ele>131.55383</ele>
        <time>2012-07-14T08:53:24Z</time>
      </trkpt>
      <trkpt lat="48.29512" lon="2.57815">
        <ele>133.36589</ele>
        <time>2012-07-14T08:53:40Z</time>
      </trkpt>
      <trkpt lat="48.29527" lon="2.57798">
        <ele>133.34335</ele>
        <time>2012-07-14T08:54:00Z</time>
      </trkpt>
      <trkpt lat="48.29543" lon="2.57783">
        <ele>134.66331</ele>
        <time>2012-07-14T08:54:14Z</time>
      </trkpt>
      <trkpt lat="48.29559" lon="2.5777">
        <ele>137.01282</ele>
        <time>2012-07-14T08:54:38Z</time>
      </trkpt>
      <trkpt lat="48.29575" lon="2.57758">
        <ele>142.70064</ele>
        <time>2012-07-14T08:54:54Z</time>
      </trkpt>
      <trkpt lat="48.29591" lon="2.57771">
        <ele>145.01569</ele>
        <time>2012-07-14T08:55:13Z</time>
      </trkpt>
      <trkpt lat="48.2961" lon="2.57768">
        <ele>145.22198</ele>
        <time>2012-07-14T08:55:27Z</time>
      </trkpt>
      <trkpt lat="48.29621" lon="2.5779">
        <ele>150.07175</ele>
        <time>2012-07-14T08:55:58Z</time>
      </trkpt>
      <trkpt lat="48.29633" lon="2.57811">
        <ele>147.58525</ele>
        <time>2012-07-14T08:56:11Z</time>
      </trkpt>
      <trkpt lat="48.29643" lon="2.57835">
        <ele>141.27165</ele>
        <time>2012-07-14T08:56:26Z</time>
      </trkpt>
      <trkpt lat="48.29661" lon="2.5784">
        <ele>139.08867</ele>
        <time>2012-07-14T08:56:48Z</time>
      </trkpt>
      <trkpt lat="48.29679" lon="2.57847">
        <ele>139.92921</ele>
        <time>2012-07-14T08:57:15Z</time>
      </trkpt>
      <trkpt lat="48.29692" lon="2.57868">
        <ele>140.52736</ele>
        <time>2012-07-14T08:57:52Z</time>
      </trkpt>
      <trkpt lat="48.29708" lon="2.57883">
        <ele>144.38715</ele>
        <time>2012-07-14T08:58:04Z</time>
      </trkpt>
      <trkpt lat="48.29722" lon="2.57899">
        <ele>147.37653</ele>
        <time>2012-07-14T08:58:18Z</time>
      </trkpt>
      <trkpt lat="48.29737" lon="2.57917">
        <ele>147.1738</ele>
        <time>2012-07-14T08:58:38Z</time>
      </trkpt>
      <trkpt lat="48.29747" lon="2.57939">
        <ele>137.32054</ele>
        <time>2012-07-14T08:59:13Z</time>
      </trkpt>
      <trkpt lat="48.29739" lon="2.57963">
        <ele>137.96597</ele>
        <time>2012-07-14T08:59:35Z</time>
      </trkpt>
      <trkpt lat="48.29738" lon="2.57991">
        <ele>137.6271</ele>
        <time>2012-07-14T09:00:22Z</time>
      </trkpt>
      <trkpt lat="48.2972" lon="2.57992">
        <ele>135.9802</ele>
        <time>2012-07-14T09:00:43Z</time>
      </trkpt>
      <trkpt lat="48.29723" lon="2.58019">
        <ele>134.92305</ele>
        <time>2012-07-14T09:01:09Z</time>
      </trkpt>
      <trkpt lat="48.29718" lon="2.58046">
        <ele>133.97656</ele>
        <time>2012-07-14T09:01:41Z</time>
      </trkpt>
      <trkpt lat="48.29727" lon="2.58072">
        <ele>129.77715</ele>
        <time>2012-07-14T09:02:11Z</time>
      </trkpt>
      <trkpt lat="48.29729" lon="2.58045">
        <ele>139.46835</ele>
        <time>2012-07-14T09:03:13Z</time>
      </trkpt>
      <trkpt lat="48.29723" lon="2.58018">
        <ele>135.54099</ele>
        <time>2012-07-14T09:03:37Z</time>
      </trkpt>
      <trkpt lat="48.29711" lon="2.57998">
        <ele>135.40912</ele>
        <time>2012-07-14T09:03:52Z</time>
      </trkpt>
      <trkpt lat="48.29692" lon="2.58001">
        <ele>135.98557</ele>
        <time>2012-07-14T09:04:07Z</time>
      </trkpt>
      <trkpt lat="48.29676" lon="2.58015">
        <ele>135.17776</ele>
        <time>2012-07-14T09:04:58Z</time>
      </trkpt>
      <trkpt lat="48.29675" lon="2.58043">
        <ele>126.7792</ele>
        <time>2012-07-14T09:05:15Z</time>
      </trkpt>
      <trkpt lat="48.29678" lon="2.58071">
        <ele>127.4582</ele>
        <time>2012-07-14T09:05:28Z</time>
      </trkpt>
      <trkpt lat="48.29688" lon="2.58096">
        <ele>128.51541</ele>
        <time>2012-07-14T09:05:42Z</time>
      </trkpt>
      <trkpt lat="48.29695" lon="2.58123">
        <ele>131.82281</ele>
        <time>2012-07-14T09:05:55Z</time>
      </trkpt>
      <trkpt lat="48.29695" lon="2.58151">
        <ele>130.03975</ele>
        <time>2012-07-14T09:06:08Z</time>
      </trkpt>
      <trkpt lat="48.297" lon="2.58179">
        <ele>129.10332</ele>
        <time>2012-07-14T09:06:23Z</time>
      </trkpt>
      <trkpt lat="48.29688" lon="2.58201">
        <ele>132.08351</ele>
        <time>2012-07-14T09:06:38Z</time>
      </trkpt>
      <trkpt lat="48.29675" lon="2.5822">
        <ele>128.55019</ele>
        <time>2012-07-14T09:06:59Z</time>
      </trkpt>
      <trkpt lat="48.29663" lon="2.5824">
        <ele>125.52651</ele>
        <time>2012-07-14T09:08:07Z</time>
      </trkpt>
      <trkpt lat="48.29673" lon="2.58262">
        <ele>116.15202</ele>
        <time>2012-07-14T09:08:28Z</time>
      </trkpt>
      <trkpt lat="48.29688" lon="2.58278">
        <ele>116.78286</ele>
        <time>2012-07-14T09:08:41Z</time>
      </trkpt>
      <trkpt lat="48.29701" lon="2.58298">
        <ele>117.68707</ele>
        <time>2012-07-14T09:08:57Z</time>
      </trkpt>
      <trkpt lat="48.29716" lon="2.58315">
        <ele>117.862366</ele>
        <time>2012-07-14T09:09:09Z</time>
      </trkpt>
      <trkpt lat="48.29729" lon="2.58334">
        <ele>118.7778</ele>
        <time>2012-07-14T09:09:27Z</time>
      </trkpt>
      <trkpt lat="48.29743" lon="2.58353">
        <ele>117.167</ele>
        <time>2012-07-14T09:09:39Z</time>
      </trkpt>
      <trkpt lat="48.29758" lon="2.58368">
        <ele>119.54891</ele>
        <time>2012-07-14T09:09:51Z</time>
      </trkpt>
      <trkpt lat="48.29772" lon="2.58386">
        <ele>120.13336</ele>
        <time>2012-07-14T09:10:05Z</time>
      </trkpt>
      <trkpt lat="48.29782" lon="2.5841">
        <ele>120.21047</ele>
        <time>2012-07-14T09:10:21Z</time>
      </trkpt>
      <trkpt lat="48.29797" lon="2.58424">
        <ele>115.80988</ele>
        <time>2012-07-14T09:10:33Z</time>
      </trkpt>
      <trkpt lat="48.29812" lon="2.5844">
        <ele>116.3134</ele>
        <time>2012-07-14T09:10:46Z</time>
      </trkpt>
      <trkpt lat="48.29823" lon="2.58464">
        <ele>114.99592</ele>
        <time>2012-07-14T09:11:03Z</time>
      </trkpt>
      <trkpt lat="48.29833" lon="2.58487">
        <ele>115.30016</ele>
        <time>2012-07-14T09:11:18Z</time>
      </trkpt>
      <trkpt lat="48.2985" lon="2.58501">
        <ele>121.32368</ele>
        <time>2012-07-14T09:11:48Z</time>
      </trkpt>
      <trkpt lat="48.2986" lon="2.58525">
        <ele>120.233</ele>
        <time>2012-07-14T09:12:01Z</time>
      </trkpt>
      <trkpt lat="48.29877" lon="2.58539">
        <ele>118.69241</ele>
        <time>2012-07-14T09:12:13Z</time>
      </trkpt>
      <trkpt lat="48.29896" lon="2.58545">
        <ele>116.35232</ele>
        <time>2012-07-14T09:12:24Z</time>
      </trkpt>
      <trkpt lat="48.29909" lon="2.58564">
        <ele>116.41729</ele>
        <time>2012-07-14T09:12:35Z</time>
      </trkpt>
      <trkpt lat="48.29927" lon="2.58564">
        <ele>114.46107</ele>
        <time>2012-07-14T09:13:04Z</time>
      </trkpt>
      <trkpt lat="48.29944" lon="2.58555">
        <ele>114.24155</ele>
        <time>2012-07-14T09:13:23Z</time>
      </trkpt>
      <trkpt lat="48.29958" lon="2.58536">
        <ele>109.29886</ele>
        <time>2012-07-14T09:13:55Z</time>
      </trkpt>
      <trkpt lat="48.29971" lon="2.58513">
        <ele>107.62353</ele>
        <time>2012-07-14T09:14:05Z</time>
      </trkpt>
      <trkpt lat="48.29989" lon="2.585">
        <ele>110.08373</ele>
        <time>2012-07-14T09:14:14Z</time>
      </trkpt>
      <trkpt lat="48.30005" lon="2.58485">
        <ele>110.12905</ele>
        <time>2012-07-14T09:14:28Z</time>
      </trkpt>
      <trkpt lat="48.30022" lon="2.58474">
        <ele>113.850525</ele>
        <time>2012-07-14T09:14:40Z</time>
      </trkpt>
      <trkpt lat="48.30041" lon="2.58469">
        <ele>114.95389</ele>
        <time>2012-07-14T09:15:46Z</time>
      </trkpt>
      <trkpt lat="48.3006" lon="2.58477">
        <ele>115.567055</ele>
        <time>2012-07-14T09:16:01Z</time>
      </trkpt>
      <trkpt lat="48.30076" lon="2.58492">
        <ele>119.08357</ele>
        <time>2012-07-14T09:16:14Z</time>
      </trkpt>
      <trkpt lat="48.30088" lon="2.58515">
        <ele>117.64288</ele>
        <time>2012-07-14T09:16:29Z</time>
      </trkpt>
      <trkpt lat="48.30104" lon="2.58527">
        <ele>118.741714</ele>
        <time>2012-07-14T09:16:39Z</time>
      </trkpt>
      <trkpt lat="48.30119" lon="2.58545">
        <ele>123.74335</ele>
        <time>2012-07-14T09:16:54Z</time>
      </trkpt>
      <trkpt lat="48.30136" lon="2.58553">
        <ele>122.90433</ele>
        <time>2012-07-14T09:17:04Z</time>
      </trkpt>
      <trkpt lat="48.30149" lon="2.58574">
        <ele>120.45851</ele>
        <time>2012-07-14T09:17:20Z</time>
      </trkpt>
      <trkpt lat="48.30165" lon="2.58587">
        <ele>116.36905</ele>
        <time>2012-07-14T09:17:39Z</time>
      </trkpt>
      <trkpt lat="48.30184" lon="2.58591">
        <ele>114.082596</ele>
        <time>2012-07-14T09:18:58Z</time>
      </trkpt>
      <trkpt lat="48.30199" lon="2.5861">
        <ele>112.96345</ele>
        <time>2012-07-14T09:19:06Z</time>
      </trkpt>
      <trkpt lat="48.30213" lon="2.58627">
        <ele>114.39787</ele>
        <time>2012-07-14T09:19:19Z</time>
      </trkpt>
      <trkpt lat="48.30229" lon="2.58641">
        <ele>114.21199</ele>
        <time>2012-07-14T09:19:35Z</time>
      </trkpt>
      <trkpt lat="48.30242" lon="2.5866">
        <ele>115.35207</ele>
        <time>2012-07-14T09:19:48Z</time>
      </trkpt>
      <trkpt lat="48.30245" lon="2.58689">
        <ele>118.37599</ele>
        <time>2012-07-14T09:20:06Z</time>
      </trkpt>
      <trkpt lat="48.30253" lon="2.58714">
        <ele>119.00253</ele>
        <time>2012-07-14T09:20:17Z</time>
      </trkpt>
      <trkpt lat="48.30252" lon="2.58743">
        <ele>125.393135</ele>
        <time>2012-07-14T09:20:33Z</time>
      </trkpt>
      <trkpt lat="48.30265" lon="2.58762">
        <ele>124.94555</ele>
        <time>2012-07-14T09:20:43Z</time>
      </trkpt>
      <trkpt lat="48.30275" lon="2.58785">
        <ele>121.8088</ele>
        <time>2012-07-14T09:20:58Z</time>
      </trkpt>
      <trkpt lat="48.30285" lon="2.58808">
        <ele>125.035126</ele>
        <time>2012-07-14T09:21:12Z</time>
      </trkpt>
      <trkpt lat="48.30297" lon="2.5883">
        <ele>124.7349</ele>
        <time>2012-07-14T09:21:25Z</time>
      </trkpt>
      <trkpt lat="48.30306" lon="2.58854">
        <ele>121.03447</ele>
        <time>2012-07-14T09:21:40Z</time>
      </trkpt>
      <trkpt lat="48.30315" lon="2.5888">
        <ele>119.71107</ele>
        <time>2012-07-14T09:21:57Z</time>
      </trkpt>
      <trkpt lat="48.30325" lon="2.58903">
        <ele>120.30061</ele>
        <time>2012-07-14T09:22:09Z</time>
      </trkpt>
      <trkpt lat="48.30313" lon="2.58924">
        <ele>124.28814</ele>
        <time>2012-07-14T09:23:27Z</time>
      </trkpt>
      <trkpt lat="48.30294" lon="2.58933">
        <ele>128.8043</ele>
        <time>2012-07-14T09:23:36Z</time>
      </trkpt>
      <trkpt lat="48.30276" lon="2.58939">
        <ele>128.47464</ele>
        <time>2012-07-14T09:23:44Z</time>
      </trkpt>
      <trkpt lat="48.30261" lon="2.58956">
        <ele>131.72389</ele>
        <time>2012-07-14T09:23:58Z</time>
      </trkpt>
      <trkpt lat="48.30268" lon="2.58981">
        <ele>133.79965</ele>
        <time>2012-07-14T09:24:07Z</time>
      </trkpt>
      <trkpt lat="48.30261" lon="2.59007">
        <ele>126.483696</ele>
        <time>2012-07-14T09:24:28Z</time>
      </trkpt>
      <trkpt lat="48.30264" lon="2.59034">
        <ele>123.05995</ele>
        <time>2012-07-14T09:24:40Z</time>
      </trkpt>
      <trkpt lat="48.30265" lon="2.59061">
        <ele>121.521355</ele>
        <time>2012-07-14T09:24:54Z</time>
      </trkpt>
      <trkpt lat="48.30271" lon="2.59087">
        <ele>120.80706</ele>
        <time>2012-07-14T09:25:07Z</time>
      </trkpt>
      <trkpt lat="48.30271" lon="2.59114">
        <ele>119.726974</ele>
        <time>2012-07-14T09:25:37Z</time>
      </trkpt>
      <trkpt lat="48.30288" lon="2.59128">
        <ele>129.51582</ele>
        <time>2012-07-14T09:26:18Z</time>
      </trkpt>
      <trkpt lat="48.30304" lon="2.59142">
        <ele>124.53995</ele>
        <time>2012-07-14T09:26:42Z</time>
      </trkpt>
      <trkpt lat="48.3032" lon="2.59155">
        <ele>125.022415</ele>
        <time>2012-07-14T09:27:01Z</time>
      </trkpt>
      <trkpt lat="48.30335" lon="2.59175">
        <ele>126.846344</ele>
        <time>2012-07-14T09:27:18Z</time>
      </trkpt>
      <trkpt lat="48.30353" lon="2.59167">
        <ele>132.52875</ele>
        <time>2012-07-14T09:28:03Z</time>
      </trkpt>
      <trkpt lat="48.30366" lon="2.59186">
        <ele>133.27359</ele>
        <time>2012-07-14T09:28:44Z</time>
      </trkpt>
      <trkpt lat="48.30357" lon="2.5921">
        <ele>129.29445</ele>
        <time>2012-07-14T09:28:59Z</time>
      </trkpt>
      <trkpt lat="48.30351" lon="2.59236">
        <ele>127.30071</ele>
        <time>2012-07-14T09:29:17Z</time>
      </trkpt>
      <trkpt lat="48.30344" lon="2.59261">
        <ele>134.31586</ele>
        <time>2012-07-14T09:29:49Z</time>
      </trkpt>
      <trkpt lat="48.30336" lon="2.59287">
        <ele>138.1772</ele>
        <time>2012-07-14T09:30:06Z</time>
      </trkpt>
      <trkpt lat="48.30327" lon="2.59312">
        <ele>139.26065</ele>
        <time>2012-07-14T09:30:20Z</time>
      </trkpt>
      <trkpt lat="48.3032" lon="2.59337">
        <ele>138.3468</ele>
        <time>2012-07-14T09:30:32Z</time>
      </trkpt>
      <trkpt lat="48.30315" lon="2.59362">
        <ele>138.17041</ele>
        <time>2012-07-14T09:30:46Z</time>
      </trkpt>
      <trkpt lat="48.30321" lon="2.59388">
        <ele>134.44273</ele>
        <time>2012-07-14T09:30:57Z</time>
      </trkpt>
      <trkpt lat="48.30324" lon="2.59415">
        <ele>133.39865</ele>
        <time>2012-07-14T09:31:11Z</time>
      </trkpt>
      <trkpt lat="48.30324" lon="2.59443">
        <ele>135.94026</ele>
        <time>2012-07-14T09:31:29Z</time>
      </trkpt>
      <trkpt lat="48.30322" lon="2.59471">
        <ele>135.81456</ele>
        <time>2012-07-14T09:31:46Z</time>
      </trkpt>
      <trkpt lat="48.30308" lon="2.59488">
        <ele>143.03247</ele>
        <time>2012-07-14T09:32:03Z</time>
      </trkpt>
      <trkpt lat="48.30294" lon="2.59509">
        <ele>145.47717</ele>
        <time>2012-07-14T09:32:18Z</time>
      </trkpt>
      <trkpt lat="48.30284" lon="2.59533">
        <ele>148.67905</ele>
        <time>2012-07-14T09:32:31Z</time>
      </trkpt>
      <trkpt lat="48.30288" lon="2.5956">
        <ele>146.10658</ele>
        <time>2012-07-14T09:32:43Z</time>
      </trkpt>
      <trkpt lat="48.3029" lon="2.59588">
        <ele>141.12177</ele>
        <time>2012-07-14T09:32:54Z</time>
      </trkpt>
      <trkpt lat="48.30298" lon="2.59613">
        <ele>139.09799</ele>
        <time>2012-07-14T09:33:06Z</time>
      </trkpt>
      <trkpt lat="48.30302" lon="2.59642">
        <ele>133.39606</ele>
        <time>2012-07-14T09:33:20Z</time>
      </trkpt>
      <trkpt lat="48.30312" lon="2.59665">
        <ele>129.49371</ele>
        <time>2012-07-14T09:33:31Z</time>
      </trkpt>
      <trkpt lat="48.30313" lon="2.59692">
        <ele>124.77691</ele>
        <time>2012-07-14T09:33:48Z</time>
      </trkpt>
      <trkpt lat="48.30316" lon="2.59719">
        <ele>125.406235</ele>
        <time>2012-07-14T09:34:05Z</time>
      </trkpt>
      <trkpt lat="48.3032" lon="2.59747">
        <ele>122.32262</ele>
        <time>2012-07-14T09:34:23Z</time>
      </trkpt>
      <trkpt lat="48.30332" lon="2.59766">
        <ele>122.47435</ele>
        <time>2012-07-14T09:35:29Z</time>
      </trkpt>
      <trkpt lat="48.30347" lon="2.59751">
        <ele>125.79658</ele>
        <time>2012-07-14T09:35:50Z</time>
      </trkpt>
      <trkpt lat="48.30364" lon="2.59741">
        <ele>126.50922</ele>
        <time>2012-07-14T09:36:08Z</time>
      </trkpt>
      <trkpt lat="48.30382" lon="2.59734">
        <ele>127.44451</ele>
        <time>2012-07-14T09:36:21Z</time>
      </trkpt>
      <trkpt lat="48.30396" lon="2.59713">
        <ele>122.50469</ele>
        <time>2012-07-14T09:36:31Z</time>
      </trkpt>
      <trkpt lat="48.30408" lon="2.59733">
        <ele>119.01126</ele>
        <time>2012-07-14T09:37:00Z</time>
      </trkpt>
      <trkpt lat="48.30409" lon="2.59761">
        <ele>120.853836</ele>
        <time>2012-07-14T09:37:17Z</time>
      </trkpt>
      <trkpt lat="48.30401" lon="2.59785">
        <ele>122.40603</ele>
        <time>2012-07-14T09:37:34Z</time>
      </trkpt>
      <trkpt lat="48.30386" lon="2.59802">
        <ele>125.70122</ele>
        <time>2012-07-14T09:37:45Z</time>
      </trkpt>
      <trkpt lat="48.3037" lon="2.59819">
        <ele>129.08827</ele>
        <time>2012-07-14T09:37:55Z</time>
      </trkpt>
      <trkpt lat="48.30356" lon="2.59837">
        <ele>125.92027</ele>
        <time>2012-07-14T09:38:09Z</time>
      </trkpt>
      <trkpt lat="48.30346" lon="2.59859">
        <ele>126.75381</ele>
        <time>2012-07-14T09:38:26Z</time>
      </trkpt>
      <trkpt lat="48.30335" lon="2.59882">
        <ele>126.49139</ele>
        <time>2012-07-14T09:38:42Z</time>
      </trkpt>
      <trkpt lat="48.30324" lon="2.59905">
        <ele>121.49087</ele>
        <time>2012-07-14T09:38:58Z</time>
      </trkpt>
      <trkpt lat="48.30311" lon="2.59926">
        <ele>125.599594</ele>
        <time>2012-07-14T09:40:04Z</time>
      </trkpt>
      <trkpt lat="48.30302" lon="2.5995">
        <ele>127.09657</ele>
        <time>2012-07-14T09:40:18Z</time>
      </trkpt>
      <trkpt lat="48.30302" lon="2.59978">
        <ele>123.669334</ele>
        <time>2012-07-14T09:40:33Z</time>
      </trkpt>
      <trkpt lat="48.30288" lon="2.59996">
        <ele>117.50606</ele>
        <time>2012-07-14T09:41:33Z</time>
      </trkpt>
      <trkpt lat="48.3028" lon="2.60022">
        <ele>121.131195</ele>
        <time>2012-07-14T09:41:52Z</time>
      </trkpt>
      <trkpt lat="48.30269" lon="2.60044">
        <ele>123.596565</ele>
        <time>2012-07-14T09:42:06Z</time>
      </trkpt>
      <trkpt lat="48.30258" lon="2.60065">
        <ele>124.37675</ele>
        <time>2012-07-14T09:42:31Z</time>
      </trkpt>
      <trkpt lat="48.30254" lon="2.60093">
        <ele>121.3529</ele>
        <time>2012-07-14T09:42:40Z</time>
      </trkpt>
      <trkpt lat="48.30248" lon="2.60119">
        <ele>120.44866</ele>
        <time>2012-07-14T09:42:54Z</time>
      </trkpt>
      <trkpt lat="48.30245" lon="2.60146">
        <ele>117.136826</ele>
        <time>2012-07-14T09:43:11Z</time>
      </trkpt>
      <trkpt lat="48.30263" lon="2.60154">
        <ele>119.01594</ele>
        <time>2012-07-14T09:44:24Z</time>
      </trkpt>
      <trkpt lat="48.30281" lon="2.60146">
        <ele>123.4976</ele>
        <time>2012-07-14T09:44:43Z</time>
      </trkpt>
      <trkpt lat="48.30301" lon="2.60145">
        <ele>123.959915</ele>
        <time>2012-07-14T09:44:57Z</time>
      </trkpt>
      <trkpt lat="48.30318" lon="2.60134">
        <ele>121.190056</ele>
        <time>2012-07-14T09:45:08Z</time>
      </trkpt>
      <trkpt lat="48.30336" lon="2.60134">
        <ele>121.2585</ele>
        <time>2012-07-14T09:45:28Z</time>
      </trkpt>
      <trkpt lat="48.30354" lon="2.60128">
        <ele>121.53992</ele>
        <time>2012-07-14T09:45:46Z</time>
      </trkpt>
      <trkpt lat="48.30373" lon="2.60127">
        <ele>121.43608</ele>
        <time>2012-07-14T09:46:00Z</time>
      </trkpt>
      <trkpt lat="48.3039" lon="2.60131">
        <ele>125.86106</ele>
        <time>2012-07-14T09:46:27Z</time>
      </trkpt>
      <trkpt lat="48.30407" lon="2.60144">
        <ele>132.47426</ele>
        <time>2012-07-14T09:46:51Z</time>
      </trkpt>
      <trkpt lat="48.30421" lon="2.60162">
        <ele>129.22789</ele>
        <time>2012-07-14T09:47:12Z</time>
      </trkpt>
      <trkpt lat="48.30435" lon="2.60181">
        <ele>132.27174</ele>
        <time>2012-07-14T09:47:37Z</time>
      </trkpt>
      <trkpt lat="48.30448" lon="2.60199">
        <ele>130.43932</ele>
        <time>2012-07-14T09:47:57Z</time>
      </trkpt>
      <trkpt lat="48.30453" lon="2.60226">
        <ele>137.96332</ele>
        <time>2012-07-14T09:48:50Z</time>
      </trkpt>
      <trkpt lat="48.3045" lon="2.60253">
        <ele>142.92908</ele>
        <time>2012-07-14T09:49:09Z</time>
      </trkpt>
      <trkpt lat="48.30457" lon="2.6028">
        <ele>146.06818</ele>
        <time>2012-07-14T09:49:25Z</time>
      </trkpt>
      <trkpt lat="48.3046" lon="2.60306">
        <ele>153.51733</ele>
        <time>2012-07-14T09:50:31Z</time>
      </trkpt>
      <trkpt lat="48.30442" lon="2.60298">
        <ele>162.6386</ele>
        <time>2012-07-14T09:51:04Z</time>
      </trkpt>
      <trkpt lat="48.30423" lon="2.60292">
        <ele>163.17719</ele>
        <time>2012-07-14T09:51:17Z</time>
      </trkpt>
      <trkpt lat="48.30404" lon="2.60294">
        <ele>163.47198</ele>
        <time>2012-07-14T09:51:31Z</time>
      </trkpt>
      <trkpt lat="48.30386" lon="2.60305">
        <ele>161.81332</ele>
        <time>2012-07-14T09:51:50Z</time>
      </trkpt>
      <trkpt lat="48.30374" lon="2.60324">
        <ele>160.14906</ele>
        <time>2012-07-14T09:52:03Z</time>
      </trkpt>
      <trkpt lat="48.30356" lon="2.60332">
        <ele>161.05716</ele>
        <time>2012-07-14T09:52:24Z</time>
      </trkpt>
      <trkpt lat="48.30337" lon="2.60329">
        <ele>160.31949</ele>
        <time>2012-07-14T09:52:46Z</time>
      </trkpt>
      <trkpt lat="48.30319" lon="2.60318">
        <ele>159.36871</ele>
        <time>2012-07-14T09:53:03Z</time>
      </trkpt>
      <trkpt lat="48.30333" lon="2.60336">
        <ele>155.24783</ele>
        <time>2012-07-14T09:55:50Z</time>
      </trkpt>
      <trkpt lat="48.3033" lon="2.60363">
        <ele>155.41353</ele>
        <time>2012-07-14T09:56:10Z</time>
      </trkpt>
      <trkpt lat="48.30343" lon="2.60384">
        <ele>155.52515</ele>
        <time>2012-07-14T09:56:29Z</time>
      </trkpt>
      <trkpt lat="48.30349" lon="2.6041">
        <ele>159.34987</ele>
        <time>2012-07-14T09:57:01Z</time>
      </trkpt>
      <trkpt lat="48.30355" lon="2.60436">
        <ele>154.99118</ele>
        <time>2012-07-14T09:57:20Z</time>
      </trkpt>
      <trkpt lat="48.30362" lon="2.6046">
        <ele>153.39668</ele>
        <time>2012-07-14T09:57:35Z</time>
      </trkpt>
      <trkpt lat="48.30371" lon="2.60484">
        <ele>159.83792</ele>
        <time>2012-07-14T09:57:51Z</time>
      </trkpt>
      <trkpt lat="48.30388" lon="2.60493">
        <ele>152.81778</ele>
        <time>2012-07-14T09:58:15Z</time>
      </trkpt>
      <trkpt lat="48.30393" lon="2.6052">
        <ele>150.01302</ele>
        <time>2012-07-14T09:58:36Z</time>
      </trkpt>
      <trkpt lat="48.30401" lon="2.60546">
        <ele>144.77354</ele>
        <time>2012-07-14T09:58:49Z</time>
      </trkpt>
      <trkpt lat="48.30402" lon="2.60573">
        <ele>142.51341</ele>
        <time>2012-07-14T09:59:06Z</time>
      </trkpt>
      <trkpt lat="48.30412" lon="2.60597">
        <ele>143.14958</ele>
        <time>2012-07-14T10:00:41Z</time>
      </trkpt>
      <trkpt lat="48.3043" lon="2.60609">
        <ele>147.15997</ele>
        <time>2012-07-14T10:00:55Z</time>
      </trkpt>
      <trkpt lat="48.30444" lon="2.60625">
        <ele>150.68848</ele>
        <time>2012-07-14T10:01:13Z</time>
      </trkpt>
      <trkpt lat="48.30457" lon="2.60647">
        <ele>150.83669</ele>
        <time>2012-07-14T10:01:28Z</time>
      </trkpt>
      <trkpt lat="48.30464" lon="2.60673">
        <ele>146.58847</ele>
        <time>2012-07-14T10:01:46Z</time>
      </trkpt>
      <trkpt lat="48.30475" lon="2.60694">
        <ele>144.04456</ele>
        <time>2012-07-14T10:01:57Z</time>
      </trkpt>
      <trkpt lat="48.30477" lon="2.60722">
        <ele>147.10378</ele>
        <time>2012-07-14T10:02:18Z</time>
      </trkpt>
      <trkpt lat="48.30473" lon="2.60748">
        <ele>147.84334</ele>
        <time>2012-07-14T10:02:33Z</time>
      </trkpt>
      <trkpt lat="48.30457" lon="2.60765">
        <ele>151.60709</ele>
        <time>2012-07-14T10:03:03Z</time>
      </trkpt>
      <trkpt lat="48.30442" lon="2.60781">
        <ele>144.40689</ele>
        <time>2012-07-14T10:03:31Z</time>
      </trkpt>
      <trkpt lat="48.30435" lon="2.60807">
        <ele>142.03133</ele>
        <time>2012-07-14T10:03:48Z</time>
      </trkpt>
      <trkpt lat="48.30431" lon="2.60833">
        <ele>140.28383</ele>
        <time>2012-07-14T10:04:04Z</time>
      </trkpt>
      <trkpt lat="48.30417" lon="2.60851">
        <ele>143.10251</ele>
        <time>2012-07-14T10:04:35Z</time>
      </trkpt>
      <trkpt lat="48.30404" lon="2.60871">
        <ele>142.2022</ele>
        <time>2012-07-14T10:04:52Z</time>
      </trkpt>
      <trkpt lat="48.30386" lon="2.60879">
        <ele>138.39351</ele>
        <time>2012-07-14T10:05:19Z</time>
      </trkpt>
      <trkpt lat="48.30367" lon="2.60878">
        <ele>137.5597</ele>
        <time>2012-07-14T10:05:42Z</time>
      </trkpt>
      <trkpt lat="48.30349" lon="2.60875">
        <ele>137.42288</ele>
        <time>2012-07-14T10:05:58Z</time>
      </trkpt>
      <trkpt lat="48.30332" lon="2.60865">
        <ele>138.41988</ele>
        <time>2012-07-14T10:06:42Z</time>
      </trkpt>
      <trkpt lat="48.30316" lon="2.6085">
        <ele>136.3939</ele>
        <time>2012-07-14T10:07:46Z</time>
      </trkpt>
      <trkpt lat="48.303" lon="2.60838">
        <ele>137.27979</ele>
        <time>2012-07-14T10:08:16Z</time>
      </trkpt>
      <trkpt lat="48.30282" lon="2.60829">
        <ele>135.43115</ele>
        <time>2012-07-14T10:08:48Z</time>
      </trkpt>
      <trkpt lat="48.30281" lon="2.60856">
        <ele>143.17125</ele>
        <time>2012-07-14T10:09:58Z</time>
      </trkpt>
      <trkpt lat="48.30286" lon="2.60883">
        <ele>142.16826</ele>
        <time>2012-07-14T10:10:22Z</time>
      </trkpt>
      <trkpt lat="48.30295" lon="2.60907">
        <ele>142.81842</ele>
        <time>2012-07-14T10:11:30Z</time>
      </trkpt>
      <trkpt lat="48.30285" lon="2.60931">
        <ele>141.69296</ele>
        <time>2012-07-14T10:11:54Z</time>
      </trkpt>
      <trkpt lat="48.30299" lon="2.60947">
        <ele>135.11502</ele>
        <time>2012-07-14T10:12:17Z</time>
      </trkpt>
      <trkpt lat="48.30297" lon="2.60975">
        <ele>136.604</ele>
        <time>2012-07-14T10:12:59Z</time>
      </trkpt>
      <trkpt lat="48.30279" lon="2.60986">
        <ele>138.49855</ele>
        <time>2012-07-14T10:13:16Z</time>
      </trkpt>
      <trkpt lat="48.30263" lon="2.60973">
        <ele>132.41833</ele>
        <time>2012-07-14T10:13:36Z</time>
      </trkpt>
      <trkpt lat="48.30256" lon="2.60947">
        <ele>130.04895</ele>
        <time>2012-07-14T10:14:28Z</time>
      </trkpt>
      <trkpt lat="48.30239" lon="2.60935">
        <ele>128.38995</ele>
        <time>2012-07-14T10:14:39Z</time>
      </trkpt>
      <trkpt lat="48.30228" lon="2.60912">
        <ele>126.798744</ele>
        <time>2012-07-14T10:15:03Z</time>
      </trkpt>
      <trkpt lat="48.30227" lon="2.60884">
        <ele>124.641716</ele>
        <time>2012-07-14T10:15:23Z</time>
      </trkpt>
      <trkpt lat="48.30226" lon="2.60855">
        <ele>123.11181</ele>
        <time>2012-07-14T10:15:37Z</time>
      </trkpt>
      <trkpt lat="48.30209" lon="2.60845">
        <ele>118.99655</ele>
        <time>2012-07-14T10:16:10Z</time>
      </trkpt>
      <trkpt lat="48.30198" lon="2.60823">
        <ele>109.00828</ele>
        <time>2012-07-14T10:16:29Z</time>
      </trkpt>
      <trkpt lat="48.30182" lon="2.60808">
        <ele>114.66876</ele>
        <time>2012-07-14T10:16:47Z</time>
      </trkpt>
      <trkpt lat="48.30173" lon="2.60785">
        <ele>116.401825</ele>
        <time>2012-07-14T10:17:03Z</time>
      </trkpt>
      <trkpt lat="48.30179" lon="2.60759">
        <ele>119.81887</ele>
        <time>2012-07-14T10:17:24Z</time>
      </trkpt>
      <trkpt lat="48.30194" lon="2.60742">
        <ele>122.402435</ele>
        <time>2012-07-14T10:17:43Z</time>
      </trkpt>
      <trkpt lat="48.30206" lon="2.60721">
        <ele>121.92235</ele>
        <time>2012-07-14T10:18:01Z</time>
      </trkpt>
      <trkpt lat="48.30217" lon="2.60698">
        <ele>120.910515</ele>
        <time>2012-07-14T10:18:13Z</time>
      </trkpt>
      <trkpt lat="48.30217" lon="2.60671">
        <ele>119.17508</ele>
        <time>2012-07-14T10:18:30Z</time>
      </trkpt>
      <trkpt lat="48.30224" lon="2.60646">
        <ele>122.56134</ele>
        <time>2012-07-14T10:18:48Z</time>
      </trkpt>
      <trkpt lat="48.30236" lon="2.60625">
        <ele>119.49845</ele>
        <time>2012-07-14T10:19:06Z</time>
      </trkpt>
      <trkpt lat="48.30243" lon="2.606">
        <ele>122.8214</ele>
        <time>2012-07-14T10:19:21Z</time>
      </trkpt>
      <trkpt lat="48.30246" lon="2.60573">
        <ele>119.42241</ele>
        <time>2012-07-14T10:19:34Z</time>
      </trkpt>
      <trkpt lat="48.30245" lon="2.60545">
        <ele>121.41527</ele>
        <time>2012-07-14T10:19:46Z</time>
      </trkpt>
      <trkpt lat="48.30249" lon="2.60518">
        <ele>119.75487</ele>
        <time>2012-07-14T10:19:56Z</time>
      </trkpt>
      <trkpt lat="48.30244" lon="2.60491">
        <ele>117.8307</ele>
        <time>2012-07-14T10:20:22Z</time>
      </trkpt>
      <trkpt lat="48.30237" lon="2.60465">
        <ele>118.01191</ele>
        <time>2012-07-14T10:20:51Z</time>
      </trkpt>
      <trkpt lat="48.30226" lon="2.6044">
        <ele>114.24652</ele>
        <time>2012-07-14T10:21:34Z</time>
      </trkpt>
      <trkpt lat="48.30213" lon="2.6042">
        <ele>106.827415</ele>
        <time>2012-07-14T10:21:52Z</time>
      </trkpt>
      <trkpt lat="48.30211" lon="2.60393">
        <ele>103.22188</ele>
        <time>2012-07-14T10:22:08Z</time>
      </trkpt>
      <trkpt lat="48.30204" lon="2.60367">
        <ele>107.80534</ele>
        <time>2012-07-14T10:22:23Z</time>
      </trkpt>
      <trkpt lat="48.30199" lon="2.60339">
        <ele>109.41956</ele>
        <time>2012-07-14T10:22:40Z</time>
      </trkpt>
      <trkpt lat="48.30198" lon="2.60312">
        <ele>114.17449</ele>
        <time>2012-07-14T10:22:54Z</time>
      </trkpt>
      <trkpt lat="48.30198" lon="2.60284">
        <ele>118.58214</ele>
        <time>2012-07-14T10:23:23Z</time>
      </trkpt>
      <trkpt lat="48.30204" lon="2.60256">
        <ele>118.25729</ele>
        <time>2012-07-14T10:23:42Z</time>
      </trkpt>
      <trkpt lat="48.30213" lon="2.60232">
        <ele>117.155396</ele>
        <time>2012-07-14T10:23:58Z</time>
      </trkpt>
      <trkpt lat="48.30222" lon="2.60207">
        <ele>118.43134</ele>
        <time>2012-07-14T10:24:17Z</time>
      </trkpt>
      <trkpt lat="48.30231" lon="2.60184">
        <ele>116.49814</ele>
        <time>2012-07-14T10:24:55Z</time>
      </trkpt>
      <trkpt lat="48.3022" lon="2.60162">
        <ele>121.01516</ele>
        <time>2012-07-14T10:26:01Z</time>
      </trkpt>
      <trkpt lat="48.30202" lon="2.60157">
        <ele>122.34352</ele>
        <time>2012-07-14T10:26:17Z</time>
      </trkpt>
      <trkpt lat="48.30185" lon="2.60168">
        <ele>120.679344</ele>
        <time>2012-07-14T10:26:30Z</time>
      </trkpt>
      <trkpt lat="48.30168" lon="2.60179">
        <ele>120.58649</ele>
        <time>2012-07-14T10:26:44Z</time>
      </trkpt>
      <trkpt lat="48.30151" lon="2.60189">
        <ele>120.04714</ele>
        <time>2012-07-14T10:27:08Z</time>
      </trkpt>
      <trkpt lat="48.30134" lon="2.60179">
        <ele>119.65281</ele>
        <time>2012-07-14T10:27:22Z</time>
      </trkpt>
      <trkpt lat="48.30117" lon="2.60168">
        <ele>119.40371</ele>
        <time>2012-07-14T10:27:39Z</time>
      </trkpt>
      <trkpt lat="48.30098" lon="2.60168">
        <ele>119.42559</ele>
        <time>2012-07-14T10:27:49Z</time>
      </trkpt>
      <trkpt lat="48.3008" lon="2.60167">
        <ele>119.77649</ele>
        <time>2012-07-14T10:28:02Z</time>
      </trkpt>
      <trkpt lat="48.30062" lon="2.60159">
        <ele>123.124275</ele>
        <time>2012-07-14T10:28:16Z</time>
      </trkpt>
      <trkpt lat="48.30044" lon="2.60155">
        <ele>120.610016</ele>
        <time>2012-07-14T10:28:27Z</time>
      </trkpt>
      <trkpt lat="48.30027" lon="2.60145">
        <ele>119.0022</ele>
        <time>2012-07-14T10:28:43Z</time>
      </trkpt>
      <trkpt lat="48.30007" lon="2.60142">
        <ele>119.36652</ele>
        <time>2012-07-14T10:28:56Z</time>
      </trkpt>
      <trkpt lat="48.29988" lon="2.6014">
        <ele>119.26033</ele>
        <time>2012-07-14T10:29:10Z</time>
      </trkpt>
      <trkpt lat="48.29969" lon="2.60137">
        <ele>118.27052</ele>
        <time>2012-07-14T10:29:22Z</time>
      </trkpt>
      <trkpt lat="48.29951" lon="2.60128">
        <ele>118.41413</ele>
        <time>2012-07-14T10:29:39Z</time>
      </trkpt>
      <trkpt lat="48.29933" lon="2.60124">
        <ele>118.9758</ele>
        <time>2012-07-14T10:29:51Z</time>
      </trkpt>
      <trkpt lat="48.29914" lon="2.60122">
        <ele>118.83005</ele>
        <time>2012-07-14T10:30:07Z</time>
      </trkpt>
      <trkpt lat="48.29897" lon="2.60112">
        <ele>121.72241</ele>
        <time>2012-07-14T10:30:19Z</time>
      </trkpt>
      <trkpt lat="48.29879" lon="2.60106">
        <ele>120.7939</ele>
        <time>2012-07-14T10:30:35Z</time>
      </trkpt>
      <trkpt lat="48.29861" lon="2.60099">
        <ele>118.247444</ele>
        <time>2012-07-14T10:30:48Z</time>
      </trkpt>
      <trkpt lat="48.29843" lon="2.6009">
        <ele>114.349174</ele>
        <time>2012-07-14T10:31:05Z</time>
      </trkpt>
      <trkpt lat="48.29839" lon="2.60063">
        <ele>113.53817</ele>
        <time>2012-07-14T10:31:23Z</time>
      </trkpt>
      <trkpt lat="48.29833" lon="2.60037">
        <ele>109.73767</ele>
        <time>2012-07-14T10:31:41Z</time>
      </trkpt>
      <trkpt lat="48.29824" lon="2.60012">
        <ele>111.10495</ele>
        <time>2012-07-14T10:31:57Z</time>
      </trkpt>
      <trkpt lat="48.29816" lon="2.59987">
        <ele>113.59418</ele>
        <time>2012-07-14T10:32:11Z</time>
      </trkpt>
      <trkpt lat="48.29806" lon="2.59964">
        <ele>109.84211</ele>
        <time>2012-07-14T10:32:27Z</time>
      </trkpt>
      <trkpt lat="48.29795" lon="2.59941">
        <ele>108.60885</ele>
        <time>2012-07-14T10:32:44Z</time>
      </trkpt>
      <trkpt lat="48.29784" lon="2.59918">
        <ele>107.33667</ele>
        <time>2012-07-14T10:33:09Z</time>
      </trkpt>
      <trkpt lat="48.29778" lon="2.59891">
        <ele>119.09229</ele>
        <time>2012-07-14T10:34:01Z</time>
      </trkpt>
      <trkpt lat="48.29765" lon="2.59871">
        <ele>115.02627</ele>
        <time>2012-07-14T10:34:20Z</time>
      </trkpt>
      <trkpt lat="48.29764" lon="2.59844">
        <ele>121.09883</ele>
        <time>2012-07-14T10:34:47Z</time>
      </trkpt>
    </trkseg>
  </trk>
</gpx>